Bristol, Wielka Brytania

09:10 BST dnia 01-październik-2014 (GMT +0100)
IENGLAND416 | Change Station
CLOSE
Current Station
Stacja PWS
Location: Bristol, ENGLAND
n.p.m.: 223 ft
Najbliższa stacja pogodowa

Wysokość 223 ft 51.48 °N, 2.60 °W | Updated 9 minutes ago

Mostly Cloudy
przewaga chmur
57.0 ° F
Odczuwalna 57.0 ° F
Płn.
1.6
Wiatr zmienny Wiatr od PnZd
Gusts 2.2 mph

Dziś
Wysoka -- | Niska -- ° F
--% Prawdop. opadów
Wczoraj
Wysoka -- | Niska -- ° F
Precip. -- cali
7:10 AM 6:48 PM
Powiększający się sierp Księżyca, 45% visible
Ciśnienie 30.24 cali
Widzialność 6.2 mil
chmury Niewiele 1200 ft
przewaga chmur 3000 ft
Punkt rosy 56 ° F
Wilgotność 96%
Opady deszczu 0.00 cali
grubość pokrywy śnieżnej Niedostępne.
UV 0 z 12
Pyłki Niedostępne.
Jakość powietrza Niedostępne.
Flu Activity Niedostępne.
METAR EGGD 010750Z 20005KT 9999 FEW012 BKN030 13/12 Q1024

More Conditions Fewer Conditions

Ciśnienie 30.24 cali
Widzialność 6.2 mil
chmury Niewiele 1200 ft
przewaga chmur 3000 ft
Punkt rosy 56 ° F
Wilgotność 96%
Opady deszczu 0.00 cali
grubość pokrywy śnieżnej Niedostępne.
UV 0 z 12
Pyłki Niedostępne.
Jakość powietrza Niedostępne.
Flu Activity Niedostępne.
METAR EGGD 010750Z 20005KT 9999 FEW012 BKN030 13/12 Q1024

More Conditions Fewer Conditions

10-Day Weather Forecast

Almanac

Astronomia

Oct. 01, 2014 Wschód Zachów
Aktualny czas 07:10 BST 18:48 BST
Zmierzch cywilny 06:37 BST 19:21 BST
Zmierzch żeglarski 05:58 BST 20:00 BST
świt/zmierzch astronomiczny 05:18 BST 20:39 BST
Księżyc 14:29 BST 23:35 BST
całkowite oświetlenie 12h 44m
Długość dnia
11h 37m
Tomorrow will be 3m 54s shorter.
Powiększający się sierp Księżyca, 45% of the Moon is Illuminated
Dziś
Powiększający się sierp Księżyca
Październik 1
Pierwsza kwadra
Październik 8
Pełnia Księżyca
Październik 15
Ostatnia kwadra
Październik 23
Nowy

Wczorajsze ekstrema

Country Highs Country Lows

Community

WunderPhotos

Upload Photos

1,757,902 zdjęcia zostały przesłane!

Nearby

Jakość powietrza

Not available.

Głębokość pokrywy śnieżnej

Not available.

Aktywność sejsmiczna

Miejscowość Distance Mag. Time & Date
No recent earthquake activity has been reported nearby.
Minimum magnitude displayed is 2.5.

Temperatury wody na wybrzeżu

Miejsce Temperatura
Nie znaleziono stacji

Najbliższa stacja pogodowa